Time;durP1;ratioP1;P1;durP2;ratioP2;P2;SDS_P1;SDS_P2;PMS_P1;PMS_P2;Temp;Humidity;BMP_temperature;BMP_pressure;BME280_temperature;BME280_humidity;BME280_pressure;Samples;Min_cycle;Max_cycle;Signal;HPM_P1;HPM_P2
2022/10/13 00:00:28;;;;;;;6.97;5.90;;;;;;;8.03;100.00;101580.09;6075003;23;20673;-71
2022/10/13 00:02:57;;;;;;;6.43;5.90;;;;;;;7.65;100.00;101523.63;6046519;23;20012;-72
2022/10/13 00:05:24;;;;;;;5.97;5.57;;;;;;;8.02;100.00;101578.38;6074705;23;20029;-71
2022/10/13 00:07:50;;;;;;;4.85;4.57;;;;;;;8.03;100.00;101580.09;6043126;23;20567;-73
2022/10/13 00:10:16;;;;;;;6.78;5.68;;;;;;;7.14;100.00;101426.59;6046874;23;20072;-72
2022/10/13 00:12:43;;;;;;;6.03;5.63;;;;;;;7.88;100.00;101554.38;6049260;23;20034;-72
2022/10/13 00:15:09;;;;;;;5.13;4.82;;;;;;;8.01;100.00;101575.81;6044985;23;20006;-71
2022/10/13 00:17:36;;;;;;;7.63;6.47;;;;;;;8.02;100.00;101567.03;6046187;23;20504;-72
2022/10/13 00:20:04;;;;;;;5.20;4.90;;;;;;;7.87;100.00;101543.06;6019476;23;20030;-72
2022/10/13 00:22:31;;;;;;;6.57;5.97;;;;;;;8.02;100.00;101567.03;6068288;23;20033;-71
2022/10/13 00:24:58;;;;;;;5.53;5.05;;;;;;;8.00;100.00;101551.44;6047667;23;20413;-72
2022/10/13 00:27:24;;;;;;;5.03;4.70;;;;;;;8.04;100.00;101560.03;6073236;23;20092;-72
2022/10/13 00:29:50;;;;;;;5.70;5.07;;;;;;;7.62;100.00;101500.19;6075162;23;20014;-72
2022/10/13 00:32:17;;;;;;;6.30;5.30;;;;;;;8.07;100.00;101562.56;6025080;23;20026;-72
2022/10/13 00:34:44;;;;;;;5.35;4.93;;;;;;;8.06;100.00;101563.44;6071992;23;20429;-72
2022/10/13 00:37:10;;;;;;;5.35;4.95;;;;;;;8.05;100.00;101557.38;6024898;23;20591;-71
2022/10/13 00:39:37;;;;;;;6.55;6.05;;;;;;;8.06;100.00;101573.91;6074434;23;20588;-72
2022/10/13 00:42:06;;;;;;;5.07;4.85;;;;;;;8.08;100.00;101553.81;6056381;23;20026;-71
2022/10/13 00:44:57;;;;;;;7.40;5.45;;;;;;;8.10;100.00;101557.25;6040555;23;20443;-71
2022/10/13 00:47:27;;;;;;;6.00;5.53;;;;;;;7.48;100.00;101443.13;6074757;23;20034;-71
2022/10/13 00:49:54;;;;;;;6.07;5.32;;;;;;;8.15;100.00;101550.13;6037977;23;20084;-71
2022/10/13 00:52:22;;;;;;;6.55;5.88;;;;;;;7.91;100.00;101497.63;6063979;23;20017;-71
2022/10/13 00:54:49;;;;;;;5.57;5.18;;;;;;;8.23;100.00;101547.31;6039518;23;20030;-71
2022/10/13 00:57:17;;;;;;;6.13;5.57;;;;;;;7.93;100.00;101488.00;6071934;23;20045;-71
2022/10/13 00:59:43;;;;;;;6.72;6.03;;;;;;;8.02;100.00;101497.34;6051660;23;20529;-71
2022/10/13 01:02:10;;;;;;;6.22;5.72;;;;;;;8.25;100.00;101524.56;6044532;23;20052;-71
2022/10/13 01:04:40;;;;;;;9.23;6.28;;;;;;;8.30;100.00;101538.34;6050397;23;20076;-71
2022/10/13 01:07:08;;;;;;;5.50;5.03;;;;;;;8.31;100.00;101534.84;6055578;23;20457;-71
2022/10/13 01:09:36;;;;;;;6.55;5.90;;;;;;;7.74;100.00;101442.41;6046337;23;20162;-71
2022/10/13 01:12:11;;;;;;;6.38;5.82;;;;;;;8.27;100.00;101521.00;6072719;23;20016;-71
2022/10/13 01:14:51;;;;;;;5.78;5.38;;;;;;;8.28;100.00;101527.97;6045694;23;20202;-71
2022/10/13 01:17:35;;;;;;;5.63;5.13;;;;;;;8.30;100.00;101515.69;6040575;23;20018;-71
2022/10/13 01:20:11;;;;;;;7.80;6.70;;;;;;;8.31;100.00;101517.41;6066163;23;20690;-71
2022/10/13 01:22:43;;;;;;;6.07;5.65;;;;;;;8.30;100.00;101513.09;6062534;23;20050;-71
2022/10/13 01:25:25;;;;;;;6.82;6.25;;;;;;;8.31;100.00;101511.31;6068975;23;20026;-71
2022/10/13 01:28:03;;;;;;;6.55;6.05;;;;;;;8.32;100.00;101503.44;6067249;23;20480;-71
2022/10/13 01:30:39;;;;;;;6.38;5.78;;;;;;;8.32;100.00;101497.34;6038475;23;20022;-71
2022/10/13 01:33:26;;;;;;;5.78;5.28;;;;;;;8.32;100.00;101503.44;6037183;23;20037;-71
2022/10/13 01:36:12;;;;;;;7.15;6.47;;;;;;;8.24;100.00;101483.63;6047070;23;20041;-72
2022/10/13 01:38:47;;;;;;;9.52;7.05;;;;;;;8.38;100.00;101502.41;6061321;23;20046;-71
2022/10/13 01:41:31;;;;;;;6.50;5.95;;;;;;;8.40;100.00;101492.75;6067087;23;20084;-71
2022/10/13 01:44:21;;;;;;;6.22;5.63;;;;;;;8.24;100.00;101460.97;6040015;23;20030;-71
2022/10/13 01:46:50;;;;;;;6.00;5.43;;;;;;;8.45;100.00;101497.88;6070508;23;20059;-71
2022/10/13 01:49:20;;;;;;;8.23;7.18;;;;;;;8.49;100.00;101496.88;6060070;23;20092;-71
2022/10/13 01:51:48;;;;;;;6.38;5.80;;;;;;;8.54;100.00;101500.22;6041315;23;20130;-71
2022/10/13 01:54:15;;;;;;;12.60;4.82;;;;;;;8.58;100.00;101494.81;6078642;23;20014;-72
2022/10/13 01:56:41;;;;;;;10.77;7.13;;;;;;;8.62;100.00;101482.50;6042224;23;20019;-71
2022/10/13 01:59:11;;;;;;;10.38;6.97;;;;;;;7.95;100.00;101368.56;6046704;23;20022;-72
2022/10/13 02:02:07;;;;;;;6.00;5.57;;;;;;;8.69;100.00;101486.63;6072799;23;20084;-72
2022/10/13 02:04:56;;;;;;;6.65;5.43;;;;;;;8.52;100.00;101466.25;6037731;23;20073;-72
2022/10/13 02:07:30;;;;;;;11.48;6.63;;;;;;;8.72;100.00;101476.06;6043176;23;20468;-72
2022/10/13 02:10:04;;;;;;;6.22;5.63;;;;;;;7.81;100.00;101326.34;6043296;23;20662;-71
2022/10/13 02:12:45;;;;;;;7.00;6.40;;;;;;;8.44;100.00;101425.50;6063734;23;20025;-71
2022/10/13 02:15:16;;;;;;;7.10;6.57;;;;;;;8.52;100.00;101445.31;6033238;23;20144;-72
2022/10/13 02:17:43;;;;;;;9.70;6.70;;;;;;;8.27;100.00;101412.94;6068717;23;21137;-71
2022/10/13 02:20:10;;;;;;;18.65;5.90;;;;;;;8.37;100.00;101420.44;6059768;23;20022;-72
2022/10/13 02:22:42;;;;;;;5.93;5.45;;;;;;;8.64;100.00;101474.59;6080379;23;20099;-71
2022/10/13 02:25:08;;;;;;;12.15;6.57;;;;;;;8.64;100.00;101478.09;6036856;23;20092;-71
2022/10/13 02:27:35;;;;;;;6.25;5.75;;;;;;;8.62;100.00;101474.66;6048757;23;20014;-72
2022/10/13 02:30:02;;;;;;;5.97;5.53;;;;;;;8.62;100.00;101469.44;6043662;23;20682;-71
2022/10/13 02:32:28;;;;;;;8.23;7.43;;;;;;;8.65;100.00;101466.69;6072040;23;20026;-71
2022/10/13 02:34:54;;;;;;;9.73;6.20;;;;;;;8.34;100.00;101415.31;6046258;23;20019;-71
2022/10/13 02:37:24;;;;;;;8.27;6.13;;;;;;;8.64;100.00;101462.38;6018146;23;20026;-71
2022/10/13 02:39:51;;;;;;;10.23;6.82;;;;;;;8.44;100.00;101434.25;6040774;23;20030;-72
2022/10/13 02:42:17;;;;;;;6.35;5.85;;;;;;;8.13;100.00;101408.97;6035248;23;20084;-72
2022/10/13 02:44:44;;;;;;;13.70;6.93;;;;;;;8.21;100.00;101403.53;6067184;23;20042;-71
2022/10/13 02:47:10;;;;;;;6.15;5.75;;;;;;;8.23;100.00;101412.19;6074634;23;20025;-71
2022/10/13 02:49:37;;;;;;;6.78;6.25;;;;;;;8.09;100.00;101389.06;6037057;23;20031;-71
2022/10/13 02:52:03;;;;;;;6.82;6.07;;;;;;;8.55;100.00;101468.75;6044444;23;20011;-71
2022/10/13 02:54:30;;;;;;;6.95;6.20;;;;;;;8.54;100.00;101466.19;6034459;23;20022;-72
2022/10/13 02:56:56;;;;;;;6.22;5.72;;;;;;;8.14;100.00;101407.25;6070114;23;20461;-72
2022/10/13 02:59:22;;;;;;;7.30;6.43;;;;;;;8.28;100.00;101412.91;6043120;23;20047;-71
2022/10/13 03:01:49;;;;;;;5.78;5.40;;;;;;;8.64;100.00;101459.78;6049787;23;20173;-71
2022/10/13 03:04:15;;;;;;;10.43;6.03;;;;;;;8.48;100.00;101417.53;6046257;23;20035;-72
2022/10/13 03:06:41;;;;;;;7.18;6.50;;;;;;;8.55;100.00;101426.88;6050016;23;20048;-72
2022/10/13 03:09:08;;;;;;;5.70;5.30;;;;;;;8.51;100.00;101408.72;6038544;23;20081;-72
2022/10/13 03:11:34;;;;;;;6.22;5.70;;;;;;;8.76;100.00;101450.66;6049040;23;20041;-71
2022/10/13 03:14:01;;;;;;;5.97;5.50;;;;;;;8.45;100.00;101398.47;6051673;23;20025;-71
2022/10/13 03:16:27;;;;;;;7.35;6.78;;;;;;;8.69;100.00;101436.91;6043701;23;20034;-72
2022/10/13 03:18:53;;;;;;;5.57;5.18;;;;;;;8.58;100.00;101431.19;6074457;23;20087;-72
2022/10/13 03:21:20;;;;;;;7.53;6.78;;;;;;;7.23;100.00;101184.47;6019950;23;20040;-72
2022/10/13 03:23:46;;;;;;;7.60;6.85;;;;;;;8.66;100.00;101425.69;6047944;23;20601;-72
2022/10/13 03:26:15;;;;;;;5.93;5.53;;;;;;;8.28;100.00;101357.09;6050638;23;20026;-72
2022/10/13 03:28:42;;;;;;;8.27;6.88;;;;;;;8.72;100.00;101439.44;6044595;23;20038;-70
2022/10/13 03:31:11;;;;;;;6.93;6.32;;;;;;;8.42;100.00;101381.13;6050144;23;20030;-71
2022/10/13 03:33:39;;;;;;;10.93;6.22;;;;;;;8.68;100.00;101411.66;6017594;23;20076;-71
2022/10/13 03:36:06;;;;;;;6.88;6.22;;;;;;;8.71;100.00;101415.94;6077264;23;20014;-71
2022/10/13 03:38:33;;;;;;;6.38;5.88;;;;;;;8.40;100.00;101364.59;6074133;23;20588;-70
2022/10/13 03:41:09;;;;;;;7.07;6.57;;;;;;;8.76;100.00;101412.25;6014961;23;20085;-70
2022/10/13 03:43:35;;;;;;;8.45;7.18;;;;;;;8.76;100.00;101409.66;6073489;23;20087;-70
2022/10/13 03:46:03;;;;;;;6.15;5.70;;;;;;;8.79;100.00;101409.53;6042926;23;20039;-70
2022/10/13 03:48:31;;;;;;;7.00;6.40;;;;;;;8.67;100.00;101388.16;6069657;23;20476;-71
2022/10/13 03:50:57;;;;;;;6.93;6.20;;;;;;;8.82;100.00;101412.94;6045127;23;20830;-72
2022/10/13 03:53:24;;;;;;;6.45;5.85;;;;;;;8.53;100.00;101355.44;6040576;23;20098;-72
2022/10/13 03:55:53;;;;;;;7.18;6.50;;;;;;;8.83;100.00;101405.06;6068062;23;20026;-71
2022/10/13 03:58:20;;;;;;;6.30;5.80;;;;;;;8.85;100.00;101407.63;6045783;23;20035;-72
2022/10/13 04:00:47;;;;;;;8.63;6.78;;;;;;;8.66;100.00;101392.53;6057625;23;20014;-72
2022/10/13 04:03:13;;;;;;;8.00;6.53;;;;;;;8.80;100.00;101405.16;6048292;23;20105;-70
2022/10/13 04:05:39;;;;;;;7.47;6.82;;;;;;;8.62;100.00;101379.59;6016158;23;20019;-71
2022/10/13 04:08:06;;;;;;;9.13;6.30;;;;;;;8.35;100.00;101342.94;6070469;23;20053;-71
2022/10/13 04:10:32;;;;;;;7.05;6.35;;;;;;;7.84;100.00;101241.75;6041838;23;20601;-71
2022/10/13 04:12:59;;;;;;;7.03;6.43;;;;;;;8.49;100.00;101358.22;6064049;23;20445;-75
2022/10/13 04:15:26;;;;;;;7.20;6.50;;;;;;;8.38;100.00;101351.56;6065665;23;20038;-71
2022/10/13 04:17:52;;;;;;;7.07;5.88;;;;;;;8.55;100.00;101389.41;6038421;23;20034;-71
2022/10/13 04:20:18;;;;;;;5.78;5.47;;;;;;;8.65;100.00;101395.19;6068698;23;20090;-71
2022/10/13 04:22:45;;;;;;;7.05;6.35;;;;;;;8.19;100.00;101321.66;6044117;23;20030;-71
2022/10/13 04:25:11;;;;;;;6.50;5.97;;;;;;;8.41;100.00;101361.09;6069398;23;20076;-71
2022/10/13 04:27:38;;;;;;;7.03;6.47;;;;;;;8.57;100.00;101377.97;6050279;23;20018;-70
2022/10/13 04:30:06;;;;;;;6.30;5.80;;;;;;;8.62;100.00;101384.81;6071418;23;20079;-71
2022/10/13 04:32:32;;;;;;;6.75;6.25;;;;;;;8.46;100.00;101353.97;6043298;23;20042;-71
2022/10/13 04:34:58;;;;;;;6.55;6.00;;;;;;;8.46;100.00;101340.00;6070020;23;20007;-71
2022/10/13 04:37:25;;;;;;;27.23;5.90;;;;;;;8.57;100.00;101371.91;6047767;23;20034;-71
2022/10/13 04:39:51;;;;;;;6.78;6.18;;;;;;;8.75;100.00;101391.38;6071454;23;20052;-73
2022/10/13 04:42:17;;;;;;;6.28;5.70;;;;;;;8.77;100.00;101390.41;6077674;23;20087;-71
2022/10/13 04:44:44;;;;;;;7.95;7.25;;;;;;;8.78;100.00;101376.44;6078654;23;20037;-71
2022/10/13 04:47:11;;;;;;;7.25;5.88;;;;;;;8.61;100.00;101330.81;6078623;23;20492;-71
2022/10/13 04:49:37;;;;;;;5.75;5.32;;;;;;;8.85;100.00;101371.81;6041718;23;20038;-71
2022/10/13 04:52:03;;;;;;;6.82;5.95;;;;;;;8.34;100.00;101308.09;6008134;23;20015;-71
2022/10/13 04:54:30;;;;;;;8.18;5.78;;;;;;;8.68;100.00;101361.94;6070698;23;20574;-71
2022/10/13 04:56:58;;;;;;;6.70;6.18;;;;;;;8.61;100.00;101355.19;6029673;23;20028;-71
2022/10/13 04:59:24;;;;;;;5.65;5.25;;;;;;;8.62;100.00;101342.97;6056269;23;20023;-71
2022/10/13 05:01:50;;;;;;;6.88;6.28;;;;;;;8.80;100.00;101371.16;6074754;23;20077;-71
2022/10/13 05:04:17;;;;;;;6.47;6.07;;;;;;;8.83;100.00;101380.66;6072337;23;20009;-71
2022/10/13 05:06:43;;;;;;;6.03;5.55;;;;;;;8.84;100.00;101379.72;6047256;23;20027;-71
2022/10/13 05:09:29;;;;;;;7.68;6.90;;;;;;;8.49;100.00;101322.44;6070968;23;20045;-71
2022/10/13 05:11:56;;;;;;;6.53;5.97;;;;;;;8.30;100.00;101290.81;6045877;23;20002;-71
2022/10/13 05:14:22;;;;;;;7.50;6.68;;;;;;;8.54;100.00;101306.63;6061964;23;20037;-71
2022/10/13 05:16:49;;;;;;;6.60;6.13;;;;;;;8.88;100.00;101370.84;6052535;23;20018;-71
2022/10/13 05:19:15;;;;;;;7.30;6.70;;;;;;;8.88;100.00;101371.75;6034414;23;20030;-71
2022/10/13 05:21:42;;;;;;;6.78;6.28;;;;;;;8.92;100.00;101368.09;6073021;23;20096;-72
2022/10/13 05:24:12;;;;;;;5.15;4.80;;;;;;;8.92;100.00;101372.47;6039565;23;20023;-71
2022/10/13 05:26:39;;;;;;;6.32;5.70;;;;;;;8.93;100.00;101366.34;6055077;23;20026;-71
2022/10/13 05:29:05;;;;;;;6.47;6.03;;;;;;;8.75;100.00;101332.03;5997088;23;20692;-71
2022/10/13 05:31:33;;;;;;;6.13;5.70;;;;;;;8.97;100.00;101362.69;6043750;23;20111;-70
2022/10/13 05:34:00;;;;;;;6.32;5.85;;;;;;;8.79;100.00;101322.31;6036609;23;20042;-72
2022/10/13 05:36:30;;;;;;;6.72;5.60;;;;;;;9.08;100.00;101347.47;5984529;23;20054;-72
2022/10/13 05:38:59;;;;;;;6.10;5.55;;;;;;;8.67;100.00;101271.25;6045939;23;20092;-72
2022/10/13 05:41:27;;;;;;;8.57;7.68;;;;;;;9.06;100.00;101344.06;6006542;23;20043;-72
2022/10/13 05:43:59;;;;;;;7.05;6.55;;;;;;;8.88;100.00;101326.38;6046705;23;20080;-71
2022/10/13 05:46:26;;;;;;;6.72;6.15;;;;;;;8.89;100.00;101333.31;6015060;23;20046;-71
2022/10/13 05:48:52;;;;;;;8.45;6.70;;;;;;;8.98;100.00;101351.34;6042034;23;20064;-73
2022/10/13 05:51:25;;;;;;;7.55;5.18;;;;;;;8.96;100.00;101346.16;6012572;23;20665;-71
2022/10/13 05:53:58;;;;;;;6.78;6.22;;;;;;;8.95;100.00;101348.81;6014196;23;20026;-71
2022/10/13 05:56:29;;;;;;;7.45;6.22;;;;;;;8.92;100.00;101348.91;6017956;23;20015;-71
2022/10/13 05:59:01;;;;;;;6.22;5.80;;;;;;;8.91;100.00;101345.44;6011240;23;20010;-71
2022/10/13 06:01:31;;;;;;;11.00;6.28;;;;;;;8.67;100.00;101297.41;6043934;23;20039;-71
2022/10/13 06:04:03;;;;;;;7.38;6.78;;;;;;;8.81;100.00;101320.50;6016995;23;20063;-71
2022/10/13 06:06:30;;;;;;;9.33;6.93;;;;;;;8.38;100.00;101249.56;5978112;23;20031;-69
2022/10/13 06:08:58;;;;;;;5.97;5.47;;;;;;;9.00;100.00;101333.81;6037290;23;20023;-69
2022/10/13 06:11:24;;;;;;;8.23;5.97;;;;;;;8.82;100.00;101298.66;5984458;23;20062;-70
2022/10/13 06:13:50;;;;;;;7.55;6.95;;;;;;;9.04;100.00;101326.69;6047102;23;20050;-69
2022/10/13 06:16:17;;;;;;;7.93;7.18;;;;;;;9.04;100.00;101324.94;5990834;23;20036;-68
2022/10/13 06:18:43;;;;;;;21.05;19.30;;;;;;;8.94;100.00;101306.09;6005660;23;20042;-68
2022/10/13 06:21:10;;;;;;;8.95;7.78;;;;;;;9.04;100.00;101330.19;5917884;23;20478;-68
2022/10/13 06:23:36;;;;;;;10.23;7.05;;;;;;;8.16;100.00;101217.19;6012809;23;20026;-71
2022/10/13 06:26:02;;;;;;;8.23;7.40;;;;;;;8.73;100.00;101284.13;6054943;23;20373;-69
2022/10/13 06:28:29;;;;;;;13.57;7.63;;;;;;;8.71;100.00;101283.31;6017320;23;20053;-70
2022/10/13 06:30:56;;;;;;;11.90;8.23;;;;;;;9.04;100.00;101337.16;6033501;23;20108;-68
2022/10/13 06:33:23;;;;;;;7.47;6.72;;;;;;;8.72;100.00;101265.84;6041168;23;20099;-69
2022/10/13 06:35:51;;;;;;;7.95;6.75;;;;;;;9.13;100.00;101306.25;6040084;23;20027;-69
2022/10/13 06:38:17;;;;;;;6.57;6.07;;;;;;;8.94;100.00;101265.94;6081895;23;20079;-69
2022/10/13 06:40:44;;;;;;;6.68;5.97;;;;;;;9.27;100.00;101307.53;6047780;23;20026;-69
2022/10/13 06:43:10;;;;;;;6.00;5.50;;;;;;;9.32;100.00;101309.06;6056878;23;20096;-69
2022/10/13 06:45:37;;;;;;;9.02;8.10;;;;;;;9.37;100.00;101314.97;6085176;23;20100;-69
2022/10/13 06:48:03;;;;;;;7.82;7.18;;;;;;;9.42;100.00;101319.19;6045704;23;20027;-69
2022/10/13 06:50:32;;;;;;;11.07;7.25;;;;;;;9.47;100.00;101317.25;6044931;23;20018;-69
2022/10/13 06:52:58;;;;;;;7.53;6.82;;;;;;;9.50;100.00;101319.75;6017156;23;20022;-68
2022/10/13 06:55:25;;;;;;;7.10;6.25;;;;;;;9.23;100.00;101275.34;6050400;23;20086;-68
2022/10/13 06:57:52;;;;;;;8.02;6.38;;;;;;;9.53;100.00;101306.56;6039969;23;20089;-68
2022/10/13 07:00:19;;;;;;;5.40;5.10;;;;;;;9.55;100.00;101318.66;6025023;23;20026;-69
2022/10/13 07:02:49;;;;;;;7.32;6.13;;;;;;;9.47;100.00;101270.94;6039997;23;20028;-69
2022/10/13 07:05:15;;;;;;;8.02;7.07;;;;;;;9.88;100.00;101326.16;6038645;23;20456;-69
2022/10/13 07:07:41;;;;;;;9.50;6.38;;;;;;;9.12;100.00;101181.50;6042696;23;20637;-69
2022/10/13 07:10:08;;;;;;;8.00;7.35;;;;;;;10.06;100.00;101334.19;6043455;23;20092;-69
2022/10/13 07:12:35;;;;;;;8.73;7.78;;;;;;;10.02;100.00;101303.78;6048100;23;20096;-69
2022/10/13 07:15:01;;;;;;;6.93;6.30;;;;;;;10.21;100.00;101322.25;6079358;23;20010;-69
2022/10/13 07:17:27;;;;;;;8.15;6.63;;;;;;;10.06;100.00;101297.47;6069941;23;20037;-69
2022/10/13 07:19:54;;;;;;;6.53;5.93;;;;;;;10.33;100.00;101332.28;6040591;23;20027;-68
2022/10/13 07:22:23;;;;;;;13.38;6.70;;;;;;;9.72;100.00;101228.94;6086947;23;20022;-68
2022/10/13 07:24:50;;;;;;;7.25;6.75;;;;;;;9.91;100.00;101250.00;6047237;23;20034;-69
2022/10/13 07:27:16;;;;;;;7.90;7.13;;;;;;;10.29;100.00;101299.19;6055213;23;20022;-69
2022/10/13 07:29:42;;;;;;;7.78;7.07;;;;;;;10.24;100.00;101273.13;6071851;23;20022;-68
2022/10/13 07:32:08;;;;;;;12.05;7.35;;;;;;;10.46;100.00;101301.97;6047487;23;20026;-69
2022/10/13 07:34:35;;;;;;;7.97;6.75;;;;;;;10.15;100.00;101252.53;6073213;23;20038;-69
2022/10/13 07:37:01;;;;;;;7.22;6.63;;;;;;;10.60;100.00;101311.03;6045594;23;20026;-70
2022/10/13 07:39:28;;;;;;;9.25;8.23;;;;;;;10.21;100.00;101249.66;6076166;23;20037;-68
2022/10/13 07:41:54;;;;;;;7.32;6.72;;;;;;;10.74;100.00;101309.56;6080564;23;20017;-69
2022/10/13 07:44:21;;;;;;;7.07;6.45;;;;;;;10.77;100.00;101309.41;6040896;23;20022;-70
2022/10/13 07:46:47;;;;;;;9.57;7.97;;;;;;;10.62;100.00;101265.44;6040552;23;20022;-69
2022/10/13 07:49:13;;;;;;;13.65;7.00;;;;;;;10.63;100.00;101245.31;6060997;23;20026;-68
2022/10/13 07:51:43;;;;;;;11.32;7.15;;;;;;;11.21;100.00;101316.25;6059736;23;20022;-69
2022/10/13 07:54:09;;;;;;;7.25;6.68;;;;;;;11.33;100.00;101323.56;6057211;23;20042;-69
2022/10/13 07:56:35;;;;;;;7.80;6.32;;;;;;;11.54;100.00;101310.38;6041380;23;20101;-69
2022/10/13 07:59:04;;;;;;;7.32;6.63;;;;;;;11.60;100.00;101296.09;6011914;23;20100;-69
2022/10/13 08:01:30;;;;;;;7.00;6.35;;;;;;;11.84;100.00;101315.13;6063296;23;20025;-68
2022/10/13 08:03:59;;;;;;;8.25;7.25;;;;;;;11.99;100.00;101311.78;6076750;23;20691;-67
2022/10/13 08:06:25;;;;;;;8.15;7.43;;;;;;;12.10;100.00;101308.63;6050961;23;20076;-69
2022/10/13 08:08:52;;;;;;;12.95;6.85;;;;;;;10.80;100.00;101076.53;6077332;23;20037;-69
2022/10/13 08:11:18;;;;;;;10.52;6.82;;;;;;;12.23;100.00;101304.47;6034915;23;20751;-70
2022/10/13 08:13:49;;;;;;;8.55;7.07;;;;;;;12.39;100.00;101312.47;6071825;23;20022;-69
2022/10/13 08:16:16;;;;;;;8.23;7.30;;;;;;;12.31;100.00;101312.84;6016433;23;20338;-69
2022/10/13 08:18:42;;;;;;;9.07;7.82;;;;;;;12.28;100.00;101315.63;6071557;23;20018;-69
2022/10/13 08:21:12;;;;;;;9.02;6.95;;;;;;;12.21;100.00;101311.59;6036582;23;20022;-69
2022/10/13 08:23:58;;;;;;;7.55;6.80;;;;;;;12.20;100.00;101298.50;6078428;23;20014;-69
2022/10/13 08:26:27;;;;;;;8.52;7.75;;;;;;;12.23;100.00;101308.88;6066046;23;20094;-69
2022/10/13 08:28:53;;;;;;;10.18;7.50;;;;;;;12.33;100.00;101310.16;6044569;23;20026;-69
2022/10/13 08:31:41;;;;;;;7.22;6.45;;;;;;;12.26;100.00;101282.41;6067688;23;20066;-70
2022/10/13 08:34:09;;;;;;;8.93;8.02;;;;;;;12.47;100.00;101309.44;6038446;23;20018;-69
2022/10/13 08:36:37;;;;;;;8.05;7.25;;;;;;;12.23;100.00;101259.75;6034591;23;20033;-69
2022/10/13 08:39:03;;;;;;;12.13;7.38;;;;;;;12.52;100.00;101307.44;6074171;23;20053;-69
2022/10/13 08:41:35;;;;;;;7.55;6.85;;;;;;;12.56;100.00;101311.59;6012757;23;20031;-69
2022/10/13 08:44:14;;;;;;;13.48;7.25;;;;;;;12.20;100.00;101261.66;6070969;23;20576;-69
2022/10/13 08:47:23;;;;;;;8.98;6.50;;;;;;;12.65;100.00;101307.66;6063549;23;20436;-69
2022/10/13 08:49:49;;;;;;;7.50;6.80;;;;;;;12.43;100.00;101252.59;6039311;23;20095;-69
2022/10/13 08:52:21;;;;;;;9.23;7.65;;;;;;;12.86;100.00;101309.19;6040175;23;20061;-68
2022/10/13 08:54:49;;;;;;;9.88;7.38;;;;;;;12.81;100.00;101284.00;6079825;23;20054;-69
2022/10/13 08:57:16;;;;;;;7.47;6.25;;;;;;;13.11;100.00;101310.50;6035706;23;20034;-68
2022/10/13 08:59:43;;;;;;;7.18;6.60;;;;;;;13.08;100.00;101303.63;6061994;23;20014;-70
2022/10/13 09:02:22;;;;;;;7.75;6.65;;;;;;;13.10;100.00;101309.69;6065361;23;20045;-68
2022/10/13 09:04:52;;;;;;;8.43;7.07;;;;;;;13.21;100.00;101298.59;6047311;23;20033;-69
2022/10/13 09:07:27;;;;;;;8.00;7.15;;;;;;;13.25;100.00;101305.38;6049446;23;20028;-70
2022/10/13 09:09:54;;;;;;;7.35;6.68;;;;;;;13.25;100.00;101286.94;6043062;23;20084;-69
2022/10/13 09:12:25;;;;;;;8.20;7.53;;;;;;;13.52;100.00;101297.78;6036004;23;20028;-69
2022/10/13 09:15:08;;;;;;;13.63;7.45;;;;;;;13.80;100.00;101308.59;6058059;23;20041;-71
2022/10/13 09:17:35;;;;;;;;;;;;;;;14.15;100.00;101301.31;6038178;23;20026;-70
2022/10/13 09:20:02;;;;;;;13.43;7.25;;;;;;;14.32;100.00;101293.25;6072364;23;19918;-69
2022/10/13 09:22:31;;;;;;;8.07;7.22;;;;;;;14.41;100.00;101246.97;6074636;23;20034;-69
2022/10/13 09:25:10;;;;;;;8.73;7.28;;;;;;;14.88;100.00;101280.28;6042623;23;20541;-69
2022/10/13 09:27:55;;;;;;;8.43;7.13;;;;;;;15.09;100.00;101280.75;6041535;23;20026;-70
2022/10/13 09:30:35;;;;;;;10.73;7.40;;;;;;;15.12;100.00;101271.81;6012179;23;20060;-70
2022/10/13 09:33:14;;;;;;;8.32;6.88;;;;;;;15.29;100.00;101284.78;6034493;23;20030;-69
2022/10/13 09:36:06;;;;;;;8.75;7.57;;;;;;;15.30;100.00;101286.50;6004143;23;20031;-69
2022/10/13 09:38:33;;;;;;;8.63;7.85;;;;;;;15.40;100.00;101286.78;6035485;23;20072;-70
2022/10/13 09:41:20;;;;;;;7.57;6.95;;;;;;;15.52;100.00;101286.00;6018016;23;20517;-70
2022/10/13 09:43:47;;;;;;;9.48;8.63;;;;;;;15.83;100.00;101285.84;6038423;23;20046;-70
2022/10/13 09:46:22;;;;;;;17.10;8.07;;;;;;;16.06;100.00;101284.38;6018234;23;21331;-70
2022/10/13 09:48:52;;;;;;;13.57;7.30;;;;;;;16.36;100.00;101286.78;6041865;23;20702;-69
2022/10/13 09:51:39;;;;;;;8.52;7.65;;;;;;;16.61;100.00;101275.34;6040419;23;20089;-70
2022/10/13 09:54:27;;;;;;;7.78;7.05;;;;;;;16.87;96.43;101275.38;6005537;23;20458;-70
2022/10/13 09:57:02;;;;;;;8.40;7.68;;;;;;;15.97;94.14;101121.69;6003161;23;21837;-70
2022/10/13 09:59:32;;;;;;;11.30;7.20;;;;;;;16.39;95.09;101182.41;6013930;23;20011;-69
2022/10/13 10:02:12;;;;;;;11.60;7.82;;;;;;;16.93;94.77;101254.59;6021681;23;20039;-69
2022/10/13 10:04:45;;;;;;;9.45;8.05;;;;;;;16.71;95.33;101202.19;6040959;23;20037;-70
2022/10/13 10:07:16;;;;;;;7.53;6.85;;;;;;;16.35;95.55;101145.50;6007277;23;20626;-70
2022/10/13 10:09:47;;;;;;;6.93;6.23;;;;;;;16.97;95.50;101243.78;6046565;23;20044;-69
2022/10/13 10:12:20;;;;;;;8.70;8.05;;;;;;;15.90;95.94;101062.19;6010825;23;20195;-68
2022/10/13 10:14:53;;;;;;;8.50;7.53;;;;;;;17.00;96.27;101240.91;6037364;23;20031;-69
2022/10/13 10:17:22;;;;;;;9.88;7.18;;;;;;;16.85;95.50;101237.53;6002831;23;20516;-69
2022/10/13 10:19:57;;;;;;;8.45;7.22;;;;;;;16.77;95.76;101242.50;6041416;23;20057;-69
2022/10/13 10:22:48;;;;;;;8.38;7.03;;;;;;;16.65;97.84;101241.53;5999298;23;20042;-70
2022/10/13 10:25:27;;;;;;;11.32;8.00;;;;;;;16.72;98.54;101238.38;6035437;23;20054;-69
2022/10/13 10:28:12;;;;;;;7.95;6.95;;;;;;;16.82;98.49;101240.38;6031569;23;20691;-70
2022/10/13 10:30:49;;;;;;;7.97;7.00;;;;;;;16.74;97.83;101230.31;6058111;23;20026;-70
2022/10/13 10:33:26;;;;;;;10.15;7.72;;;;;;;16.74;97.49;101231.16;6039094;23;20017;-68
2022/10/13 10:36:15;;;;;;;8.70;7.82;;;;;;;16.61;98.39;101230.28;6032821;23;20034;-69
2022/10/13 10:39:01;;;;;;;9.25;7.47;;;;;;;16.58;98.63;101227.88;6035316;23;20019;-70
2022/10/13 10:41:41;;;;;;;8.32;7.22;;;;;;;16.82;98.93;101228.00;6032084;23;20122;-70
2022/10/13 10:44:29;;;;;;;10.05;6.97;;;;;;;17.13;96.81;101233.78;6036621;23;20034;-69
2022/10/13 10:47:03;;;;;;;7.18;6.57;;;;;;;17.21;95.74;101234.06;6061100;23;20056;-69
2022/10/13 10:49:35;;;;;;;8.52;7.32;;;;;;;17.45;93.64;101227.97;6036060;23;20560;-70
2022/10/13 10:52:07;;;;;;;7.22;6.72;;;;;;;17.04;93.41;101181.38;6068573;23;20413;-69
2022/10/13 10:54:45;;;;;;;12.98;7.20;;;;;;;17.40;92.28;101215.03;6012270;23;20073;-70
2022/10/13 10:57:39;;;;;;;7.55;6.90;;;;;;;17.19;93.26;101177.63;6037079;23;20038;-71
2022/10/13 11:00:26;;;;;;;8.07;7.38;;;;;;;17.41;94.15;101206.09;6036710;23;20030;-70
2022/10/13 11:03:30;;;;;;;8.00;7.40;;;;;;;17.53;93.80;101209.69;6049849;23;20039;-70
2022/10/13 11:05:56;;;;;;;6.68;6.18;;;;;;;17.70;91.59;101211.06;5978053;23;20038;-69
2022/10/13 11:08:42;;;;;;;5.95;5.65;;;;;;;17.68;86.64;101208.56;6064478;23;20041;-70
2022/10/13 11:11:29;;;;;;;7.90;7.00;;;;;;;17.54;83.65;101180.38;6033882;23;20034;-70
2022/10/13 11:14:23;;;;;;;6.65;6.05;;;;;;;17.57;82.05;101205.00;6064993;23;20093;-69
2022/10/13 11:17:13;;;;;;;6.88;6.35;;;;;;;17.51;80.85;101200.97;6057275;23;20007;-70
2022/10/13 11:19:40;;;;;;;6.13;5.75;;;;;;;17.15;82.20;101158.44;6041796;23;20025;-69
2022/10/13 11:22:06;;;;;;;6.13;5.72;;;;;;;17.30;82.56;101214.84;6048916;23;20018;-72
2022/10/13 11:24:33;;;;;;;5.88;5.43;;;;;;;17.28;84.62;101216.78;6047542;23;20050;-68
2022/10/13 11:27:11;;;;;;;6.72;6.22;;;;;;;17.21;85.67;101217.31;6045978;23;20026;-68
2022/10/13 11:29:43;;;;;;;6.32;5.93;;;;;;;17.04;86.38;101219.38;6068281;23;20042;-69
2022/10/13 11:35:03;;;;;;;6.15;5.75;;;;;;;16.82;89.93;101212.09;6037762;23;20018;-69
2022/10/13 11:37:59;;;;;;;6.30;5.80;;;;;;;16.69;91.80;101220.00;6004944;23;20035;-70
2022/10/13 11:40:44;;;;;;;6.70;6.20;;;;;;;16.40;93.01;101215.88;6048534;23;20093;-70